sensor_id;sensor_type;location;lat;lon;timestamp;P1;durP1;ratioP1;P2;durP2;ratioP2
41293;SDS011;27037;52.010;4.446;2023-07-24T00:02:08;9.90;;;6.25;;
41293;SDS011;27037;52.010;4.446;2023-07-24T00:04:34;9.40;;;5.85;;
41293;SDS011;27037;52.010;4.446;2023-07-24T00:07:00;9.05;;;5.80;;
41293;SDS011;27037;52.010;4.446;2023-07-24T00:09:26;8.15;;;5.57;;
41293;SDS011;27037;52.010;4.446;2023-07-24T00:11:51;10.02;;;5.85;;
41293;SDS011;27037;52.010;4.446;2023-07-24T00:14:17;8.60;;;5.50;;
41293;SDS011;27037;52.010;4.446;2023-07-24T00:16:43;9.68;;;6.25;;
41293;SDS011;27037;52.010;4.446;2023-07-24T00:19:08;8.68;;;5.78;;
41293;SDS011;27037;52.010;4.446;2023-07-24T00:21:34;9.25;;;6.18;;
41293;SDS011;27037;52.010;4.446;2023-07-24T00:24:00;8.40;;;5.68;;
41293;SDS011;27037;52.010;4.446;2023-07-24T00:26:25;9.23;;;6.03;;
41293;SDS011;27037;52.010;4.446;2023-07-24T00:28:51;10.77;;;5.82;;
41293;SDS011;27037;52.010;4.446;2023-07-24T00:31:16;7.45;;;5.50;;
41293;SDS011;27037;52.010;4.446;2023-07-24T00:33:42;10.45;;;6.30;;
41293;SDS011;27037;52.010;4.446;2023-07-24T00:36:08;8.18;;;5.93;;
41293;SDS011;27037;52.010;4.446;2023-07-24T00:38:33;9.52;;;6.38;;
41293;SDS011;27037;52.010;4.446;2023-07-24T00:40:59;10.43;;;5.93;;
41293;SDS011;27037;52.010;4.446;2023-07-24T00:43:25;10.57;;;6.05;;
41293;SDS011;27037;52.010;4.446;2023-07-24T00:45:50;9.40;;;6.00;;
41293;SDS011;27037;52.010;4.446;2023-07-24T00:48:16;8.65;;;6.50;;
41293;SDS011;27037;52.010;4.446;2023-07-24T00:50:42;10.55;;;6.40;;
41293;SDS011;27037;52.010;4.446;2023-07-24T00:53:10;12.50;;;6.85;;
41293;SDS011;27037;52.010;4.446;2023-07-24T00:55:37;12.35;;;6.75;;
41293;SDS011;27037;52.010;4.446;2023-07-24T00:58:03;10.50;;;6.50;;
41293;SDS011;27037;52.010;4.446;2023-07-24T01:00:29;11.52;;;6.50;;
41293;SDS011;27037;52.010;4.446;2023-07-24T01:02:55;9.65;;;6.00;;
41293;SDS011;27037;52.010;4.446;2023-07-24T01:05:24;12.52;;;6.57;;
41293;SDS011;27037;52.010;4.446;2023-07-24T01:07:51;10.98;;;6.72;;
41293;SDS011;27037;52.010;4.446;2023-07-24T01:10:17;11.65;;;7.03;;
41293;SDS011;27037;52.010;4.446;2023-07-24T01:17:52;11.00;;;6.65;;
41293;SDS011;27037;52.010;4.446;2023-07-24T01:20:26;11.95;;;7.20;;
41293;SDS011;27037;52.010;4.446;2023-07-24T01:26:01;13.30;;;7.55;;
41293;SDS011;27037;52.010;4.446;2023-07-24T01:28:29;12.18;;;7.18;;
41293;SDS011;27037;52.010;4.446;2023-07-24T01:30:55;14.57;;;7.70;;
41293;SDS011;27037;52.010;4.446;2023-07-24T01:33:21;12.57;;;7.43;;
41293;SDS011;27037;52.010;4.446;2023-07-24T01:35:48;12.63;;;7.63;;
41293;SDS011;27037;52.010;4.446;2023-07-24T01:38:17;13.00;;;6.78;;
41293;SDS011;27037;52.010;4.446;2023-07-24T01:40:43;18.27;;;7.32;;
41293;SDS011;27037;52.010;4.446;2023-07-24T01:43:09;14.35;;;7.80;;
41293;SDS011;27037;52.010;4.446;2023-07-24T01:45:35;15.90;;;7.68;;
41293;SDS011;27037;52.010;4.446;2023-07-24T01:48:01;13.93;;;6.97;;
41293;SDS011;27037;52.010;4.446;2023-07-24T01:50:31;15.90;;;7.30;;
41293;SDS011;27037;52.010;4.446;2023-07-24T01:52:57;15.68;;;6.95;;
41293;SDS011;27037;52.010;4.446;2023-07-24T01:55:23;13.85;;;7.47;;
41293;SDS011;27037;52.010;4.446;2023-07-24T01:57:48;15.80;;;7.20;;
41293;SDS011;27037;52.010;4.446;2023-07-24T02:00:14;14.15;;;6.95;;
41293;SDS011;27037;52.010;4.446;2023-07-24T02:02:40;13.73;;;6.32;;
41293;SDS011;27037;52.010;4.446;2023-07-24T02:05:05;12.30;;;6.63;;
41293;SDS011;27037;52.010;4.446;2023-07-24T02:07:31;16.27;;;7.05;;
41293;SDS011;27037;52.010;4.446;2023-07-24T02:09:57;13.77;;;6.43;;
41293;SDS011;27037;52.010;4.446;2023-07-24T02:12:23;13.52;;;6.40;;
41293;SDS011;27037;52.010;4.446;2023-07-24T02:14:48;14.20;;;6.63;;
41293;SDS011;27037;52.010;4.446;2023-07-24T02:17:16;16.48;;;7.00;;
41293;SDS011;27037;52.010;4.446;2023-07-24T02:19:42;16.15;;;6.70;;
41293;SDS011;27037;52.010;4.446;2023-07-24T02:22:08;15.52;;;7.10;;
41293;SDS011;27037;52.010;4.446;2023-07-24T02:24:34;13.27;;;6.57;;
41293;SDS011;27037;52.010;4.446;2023-07-24T02:27:00;12.70;;;6.72;;
41293;SDS011;27037;52.010;4.446;2023-07-24T02:29:25;12.32;;;6.70;;
41293;SDS011;27037;52.010;4.446;2023-07-24T02:31:52;13.32;;;6.70;;
41293;SDS011;27037;52.010;4.446;2023-07-24T02:34:19;13.32;;;7.40;;
41293;SDS011;27037;52.010;4.446;2023-07-24T02:36:49;15.25;;;6.72;;
41293;SDS011;27037;52.010;4.446;2023-07-24T02:39:15;15.43;;;6.38;;
41293;SDS011;27037;52.010;4.446;2023-07-24T02:41:40;17.95;;;6.80;;
41293;SDS011;27037;52.010;4.446;2023-07-24T02:44:06;16.00;;;6.35;;
41293;SDS011;27037;52.010;4.446;2023-07-24T02:46:32;15.55;;;6.47;;
41293;SDS011;27037;52.010;4.446;2023-07-24T02:48:57;18.05;;;6.35;;
41293;SDS011;27037;52.010;4.446;2023-07-24T02:51:23;16.45;;;6.03;;
41293;SDS011;27037;52.010;4.446;2023-07-24T02:53:48;21.25;;;6.68;;
41293;SDS011;27037;52.010;4.446;2023-07-24T02:56:14;15.10;;;6.38;;
41293;SDS011;27037;52.010;4.446;2023-07-24T02:58:40;18.38;;;6.18;;
41293;SDS011;27037;52.010;4.446;2023-07-24T03:01:05;16.75;;;6.80;;
41293;SDS011;27037;52.010;4.446;2023-07-24T03:03:32;16.42;;;7.00;;
41293;SDS011;27037;52.010;4.446;2023-07-24T03:05:58;14.52;;;6.50;;
41293;SDS011;27037;52.010;4.446;2023-07-24T03:08:24;17.85;;;7.13;;
41293;SDS011;27037;52.010;4.446;2023-07-24T03:10:50;19.33;;;7.28;;
41293;SDS011;27037;52.010;4.446;2023-07-24T03:13:15;18.55;;;7.30;;
41293;SDS011;27037;52.010;4.446;2023-07-24T03:15:41;20.27;;;7.72;;
41293;SDS011;27037;52.010;4.446;2023-07-24T03:18:07;15.95;;;7.22;;
41293;SDS011;27037;52.010;4.446;2023-07-24T03:20:32;17.15;;;7.75;;
41293;SDS011;27037;52.010;4.446;2023-07-24T03:22:58;17.77;;;7.95;;
41293;SDS011;27037;52.010;4.446;2023-07-24T03:25:24;15.40;;;7.35;;
41293;SDS011;27037;52.010;4.446;2023-07-24T03:27:49;18.63;;;7.82;;
41293;SDS011;27037;52.010;4.446;2023-07-24T03:30:15;14.10;;;7.22;;
41293;SDS011;27037;52.010;4.446;2023-07-24T03:32:40;14.95;;;7.18;;
41293;SDS011;27037;52.010;4.446;2023-07-24T03:35:06;16.55;;;7.00;;
41293;SDS011;27037;52.010;4.446;2023-07-24T03:37:33;16.73;;;6.82;;
41293;SDS011;27037;52.010;4.446;2023-07-24T03:40:00;13.95;;;6.32;;
41293;SDS011;27037;52.010;4.446;2023-07-24T03:42:27;16.50;;;6.43;;
41293;SDS011;27037;52.010;4.446;2023-07-24T03:44:54;18.40;;;6.65;;
41293;SDS011;27037;52.010;4.446;2023-07-24T03:47:20;18.95;;;7.15;;
41293;SDS011;27037;52.010;4.446;2023-07-24T03:49:46;17.95;;;7.50;;
41293;SDS011;27037;52.010;4.446;2023-07-24T03:52:11;14.25;;;6.45;;
41293;SDS011;27037;52.010;4.446;2023-07-24T03:54:37;15.05;;;6.75;;
41293;SDS011;27037;52.010;4.446;2023-07-24T03:57:03;14.65;;;7.03;;
41293;SDS011;27037;52.010;4.446;2023-07-24T03:59:29;20.80;;;7.22;;
41293;SDS011;27037;52.010;4.446;2023-07-24T04:01:55;17.60;;;6.93;;
41293;SDS011;27037;52.010;4.446;2023-07-24T04:04:21;19.52;;;6.53;;
41293;SDS011;27037;52.010;4.446;2023-07-24T04:06:46;21.35;;;6.50;;
41293;SDS011;27037;52.010;4.446;2023-07-24T04:09:12;21.90;;;7.28;;
41293;SDS011;27037;52.010;4.446;2023-07-24T04:11:40;17.55;;;6.65;;
41293;SDS011;27037;52.010;4.446;2023-07-24T04:14:06;17.85;;;7.05;;
41293;SDS011;27037;52.010;4.446;2023-07-24T04:16:31;15.00;;;6.85;;
41293;SDS011;27037;52.010;4.446;2023-07-24T04:18:57;18.98;;;7.18;;
41293;SDS011;27037;52.010;4.446;2023-07-24T04:21:23;19.15;;;7.00;;
41293;SDS011;27037;52.010;4.446;2023-07-24T04:23:48;18.42;;;6.72;;
41293;SDS011;27037;52.010;4.446;2023-07-24T04:26:14;19.38;;;6.47;;
41293;SDS011;27037;52.010;4.446;2023-07-24T04:28:39;22.15;;;6.95;;
41293;SDS011;27037;52.010;4.446;2023-07-24T04:31:05;20.23;;;7.25;;
41293;SDS011;27037;52.010;4.446;2023-07-24T04:33:31;16.80;;;6.55;;
41293;SDS011;27037;52.010;4.446;2023-07-24T04:35:56;21.90;;;7.32;;
41293;SDS011;27037;52.010;4.446;2023-07-24T04:38:22;18.98;;;6.85;;
41293;SDS011;27037;52.010;4.446;2023-07-24T04:40:47;17.08;;;6.85;;
41293;SDS011;27037;52.010;4.446;2023-07-24T04:43:13;18.10;;;6.63;;
41293;SDS011;27037;52.010;4.446;2023-07-24T04:45:39;16.45;;;6.20;;
41293;SDS011;27037;52.010;4.446;2023-07-24T04:48:04;19.63;;;6.80;;
41293;SDS011;27037;52.010;4.446;2023-07-24T04:50:30;23.13;;;7.50;;
41293;SDS011;27037;52.010;4.446;2023-07-24T04:52:57;17.35;;;6.55;;
41293;SDS011;27037;52.010;4.446;2023-07-24T04:55:23;21.67;;;7.20;;
41293;SDS011;27037;52.010;4.446;2023-07-24T04:57:49;20.88;;;6.97;;
41293;SDS011;27037;52.010;4.446;2023-07-24T05:00:14;19.42;;;6.72;;
41293;SDS011;27037;52.010;4.446;2023-07-24T05:02:40;17.25;;;6.18;;
41293;SDS011;27037;52.010;4.446;2023-07-24T05:05:06;23.20;;;6.95;;
41293;SDS011;27037;52.010;4.446;2023-07-24T05:07:32;17.98;;;6.20;;
41293;SDS011;27037;52.010;4.446;2023-07-24T05:09:57;18.58;;;6.40;;
41293;SDS011;27037;52.010;4.446;2023-07-24T05:12:23;22.25;;;6.28;;
41293;SDS011;27037;52.010;4.446;2023-07-24T05:14:49;16.55;;;5.82;;
41293;SDS011;27037;52.010;4.446;2023-07-24T05:17:15;18.15;;;6.03;;
41293;SDS011;27037;52.010;4.446;2023-07-24T05:19:40;19.02;;;6.25;;
41293;SDS011;27037;52.010;4.446;2023-07-24T05:22:06;15.65;;;6.47;;
41293;SDS011;27037;52.010;4.446;2023-07-24T05:24:32;17.88;;;6.20;;
41293;SDS011;27037;52.010;4.446;2023-07-24T05:26:58;17.48;;;5.72;;
41293;SDS011;27037;52.010;4.446;2023-07-24T05:29:24;13.20;;;5.50;;
41293;SDS011;27037;52.010;4.446;2023-07-24T05:31:49;15.48;;;5.63;;
41293;SDS011;27037;52.010;4.446;2023-07-24T05:34:15;18.10;;;6.40;;
41293;SDS011;27037;52.010;4.446;2023-07-24T05:36:41;17.75;;;5.53;;
41293;SDS011;27037;52.010;4.446;2023-07-24T05:39:06;20.00;;;5.68;;
41293;SDS011;27037;52.010;4.446;2023-07-24T05:41:32;15.00;;;5.20;;
41293;SDS011;27037;52.010;4.446;2023-07-24T05:43:58;16.25;;;5.30;;
41293;SDS011;27037;52.010;4.446;2023-07-24T05:46:23;16.15;;;5.30;;
41293;SDS011;27037;52.010;4.446;2023-07-24T05:48:49;12.80;;;5.00;;
41293;SDS011;27037;52.010;4.446;2023-07-24T05:51:14;16.38;;;5.28;;
41293;SDS011;27037;52.010;4.446;2023-07-24T05:53:40;13.98;;;4.90;;
41293;SDS011;27037;52.010;4.446;2023-07-24T05:56:06;20.20;;;4.95;;
41293;SDS011;27037;52.010;4.446;2023-07-24T05:58:31;13.73;;;4.68;;
41293;SDS011;27037;52.010;4.446;2023-07-24T06:00:57;16.80;;;4.53;;
41293;SDS011;27037;52.010;4.446;2023-07-24T06:03:23;15.68;;;4.78;;
41293;SDS011;27037;52.010;4.446;2023-07-24T06:05:52;15.48;;;4.70;;
41293;SDS011;27037;52.010;4.446;2023-07-24T06:08:18;14.57;;;4.88;;
41293;SDS011;27037;52.010;4.446;2023-07-24T06:10:48;15.23;;;4.72;;
41293;SDS011;27037;52.010;4.446;2023-07-24T06:13:15;12.25;;;4.20;;
41293;SDS011;27037;52.010;4.446;2023-07-24T06:15:41;15.95;;;4.32;;
41293;SDS011;27037;52.010;4.446;2023-07-24T06:18:07;12.55;;;4.78;;
41293;SDS011;27037;52.010;4.446;2023-07-24T06:20:33;14.00;;;4.40;;
41293;SDS011;27037;52.010;4.446;2023-07-24T06:22:59;15.00;;;5.28;;
41293;SDS011;27037;52.010;4.446;2023-07-24T06:25:24;12.77;;;4.60;;
41293;SDS011;27037;52.010;4.446;2023-07-24T06:27:50;17.27;;;4.57;;
41293;SDS011;27037;52.010;4.446;2023-07-24T06:30:16;14.93;;;4.97;;
41293;SDS011;27037;52.010;4.446;2023-07-24T06:32:42;12.98;;;4.40;;
41293;SDS011;27037;52.010;4.446;2023-07-24T06:35:08;14.48;;;4.93;;
41293;SDS011;27037;52.010;4.446;2023-07-24T06:37:33;14.93;;;5.00;;
41293;SDS011;27037;52.010;4.446;2023-07-24T06:39:59;14.90;;;4.90;;
41293;SDS011;27037;52.010;4.446;2023-07-24T06:42:25;10.35;;;4.70;;
41293;SDS011;27037;52.010;4.446;2023-07-24T06:44:50;14.63;;;5.40;;
41293;SDS011;27037;52.010;4.446;2023-07-24T06:47:16;18.50;;;5.20;;
41293;SDS011;27037;52.010;4.446;2023-07-24T06:49:41;16.17;;;4.97;;
41293;SDS011;27037;52.010;4.446;2023-07-24T06:52:07;17.15;;;5.18;;
41293;SDS011;27037;52.010;4.446;2023-07-24T06:54:33;15.48;;;4.85;;
41293;SDS011;27037;52.010;4.446;2023-07-24T06:56:58;14.20;;;5.50;;
41293;SDS011;27037;52.010;4.446;2023-07-24T06:59:24;14.60;;;5.22;;
41293;SDS011;27037;52.010;4.446;2023-07-24T07:01:49;18.60;;;5.82;;
41293;SDS011;27037;52.010;4.446;2023-07-24T07:04:16;14.52;;;5.82;;
41293;SDS011;27037;52.010;4.446;2023-07-24T07:06:41;16.50;;;5.68;;
41293;SDS011;27037;52.010;4.446;2023-07-24T07:09:07;19.35;;;5.50;;
41293;SDS011;27037;52.010;4.446;2023-07-24T07:11:33;14.32;;;5.05;;
41293;SDS011;27037;52.010;4.446;2023-07-24T07:13:58;13.85;;;5.13;;
41293;SDS011;27037;52.010;4.446;2023-07-24T07:16:24;14.27;;;4.68;;
41293;SDS011;27037;52.010;4.446;2023-07-24T07:18:49;16.08;;;5.50;;
41293;SDS011;27037;52.010;4.446;2023-07-24T07:21:15;17.20;;;5.30;;
41293;SDS011;27037;52.010;4.446;2023-07-24T07:23:41;17.98;;;5.18;;
41293;SDS011;27037;52.010;4.446;2023-07-24T07:26:06;16.98;;;6.20;;
41293;SDS011;27037;52.010;4.446;2023-07-24T07:28:32;19.42;;;6.18;;
41293;SDS011;27037;52.010;4.446;2023-07-24T07:30:57;17.50;;;6.00;;
41293;SDS011;27037;52.010;4.446;2023-07-24T07:33:23;16.30;;;5.43;;
41293;SDS011;27037;52.010;4.446;2023-07-24T07:35:49;16.52;;;5.45;;
41293;SDS011;27037;52.010;4.446;2023-07-24T07:38:15;13.18;;;5.15;;
41293;SDS011;27037;52.010;4.446;2023-07-24T07:40:41;12.27;;;4.97;;
41293;SDS011;27037;52.010;4.446;2023-07-24T07:43:06;15.25;;;5.45;;
41293;SDS011;27037;52.010;4.446;2023-07-24T07:45:32;16.90;;;4.93;;
41293;SDS011;27037;52.010;4.446;2023-07-24T07:47:58;14.32;;;4.68;;
41293;SDS011;27037;52.010;4.446;2023-07-24T07:50:24;10.32;;;4.30;;
41293;SDS011;27037;52.010;4.446;2023-07-24T07:52:50;10.90;;;5.05;;
41293;SDS011;27037;52.010;4.446;2023-07-24T07:55:18;14.20;;;4.78;;
41293;SDS011;27037;52.010;4.446;2023-07-24T07:57:44;12.65;;;4.20;;
41293;SDS011;27037;52.010;4.446;2023-07-24T08:00:10;10.05;;;4.35;;
41293;SDS011;27037;52.010;4.446;2023-07-24T08:02:36;14.40;;;4.70;;
41293;SDS011;27037;52.010;4.446;2023-07-24T08:05:08;14.15;;;4.30;;
41293;SDS011;27037;52.010;4.446;2023-07-24T08:07:34;13.35;;;4.80;;
41293;SDS011;27037;52.010;4.446;2023-07-24T08:10:00;12.27;;;4.53;;
41293;SDS011;27037;52.010;4.446;2023-07-24T08:12:26;12.77;;;4.47;;
41293;SDS011;27037;52.010;4.446;2023-07-24T08:14:52;12.07;;;4.43;;
41293;SDS011;27037;52.010;4.446;2023-07-24T08:17:17;12.57;;;4.50;;
41293;SDS011;27037;52.010;4.446;2023-07-24T08:19:43;13.07;;;5.43;;
41293;SDS011;27037;52.010;4.446;2023-07-24T08:22:09;13.20;;;5.72;;
41293;SDS011;27037;52.010;4.446;2023-07-24T08:24:34;14.05;;;5.85;;
41293;SDS011;27037;52.010;4.446;2023-07-24T08:27:00;16.52;;;6.45;;
41293;SDS011;27037;52.010;4.446;2023-07-24T08:29:26;15.43;;;5.35;;
41293;SDS011;27037;52.010;4.446;2023-07-24T08:31:52;13.65;;;5.35;;
41293;SDS011;27037;52.010;4.446;2023-07-24T08:34:17;16.08;;;5.32;;
41293;SDS011;27037;52.010;4.446;2023-07-24T08:36:43;13.32;;;4.93;;
41293;SDS011;27037;52.010;4.446;2023-07-24T08:39:09;12.27;;;5.10;;
41293;SDS011;27037;52.010;4.446;2023-07-24T08:41:34;13.02;;;4.82;;
41293;SDS011;27037;52.010;4.446;2023-07-24T08:44:02;12.05;;;4.55;;
41293;SDS011;27037;52.010;4.446;2023-07-24T08:46:30;14.73;;;4.75;;
41293;SDS011;27037;52.010;4.446;2023-07-24T08:49:00;16.17;;;5.50;;
41293;SDS011;27037;52.010;4.446;2023-07-24T08:51:26;14.57;;;5.40;;
41293;SDS011;27037;52.010;4.446;2023-07-24T08:53:54;11.70;;;4.75;;
41293;SDS011;27037;52.010;4.446;2023-07-24T08:56:20;12.80;;;4.70;;
41293;SDS011;27037;52.010;4.446;2023-07-24T08:58:46;11.05;;;4.40;;
41293;SDS011;27037;52.010;4.446;2023-07-24T09:01:12;14.55;;;5.22;;
41293;SDS011;27037;52.010;4.446;2023-07-24T09:03:37;10.27;;;5.13;;
41293;SDS011;27037;52.010;4.446;2023-07-24T09:06:03;14.50;;;5.43;;
41293;SDS011;27037;52.010;4.446;2023-07-24T09:10:56;14.15;;;5.57;;
41293;SDS011;27037;52.010;4.446;2023-07-24T09:13:22;13.02;;;5.18;;
41293;SDS011;27037;52.010;4.446;2023-07-24T09:15:48;15.15;;;4.97;;
41293;SDS011;27037;52.010;4.446;2023-07-24T09:18:13;11.32;;;4.85;;
41293;SDS011;27037;52.010;4.446;2023-07-24T09:20:40;11.88;;;4.88;;
41293;SDS011;27037;52.010;4.446;2023-07-24T09:23:08;15.27;;;5.53;;
41293;SDS011;27037;52.010;4.446;2023-07-24T09:25:37;8.43;;;4.40;;
41293;SDS011;27037;52.010;4.446;2023-07-24T09:30:39;17.05;;;4.70;;
41293;SDS011;27037;52.010;4.446;2023-07-24T09:33:06;13.88;;;5.20;;
41293;SDS011;27037;52.010;4.446;2023-07-24T09:35:32;14.77;;;5.40;;
41293;SDS011;27037;52.010;4.446;2023-07-24T09:38:05;11.07;;;4.30;;
41293;SDS011;27037;52.010;4.446;2023-07-24T09:40:38;10.95;;;4.85;;
41293;SDS011;27037;52.010;4.446;2023-07-24T09:43:21;11.40;;;4.38;;
41293;SDS011;27037;52.010;4.446;2023-07-24T09:45:49;11.65;;;5.70;;
41293;SDS011;27037;52.010;4.446;2023-07-24T09:48:16;8.80;;;4.10;;
41293;SDS011;27037;52.010;4.446;2023-07-24T09:50:44;10.25;;;5.20;;
41293;SDS011;27037;52.010;4.446;2023-07-24T09:58:23;8.07;;;4.38;;
41293;SDS011;27037;52.010;4.446;2023-07-24T10:00:50;12.18;;;5.03;;
41293;SDS011;27037;52.010;4.446;2023-07-24T10:03:16;8.60;;;4.43;;
41293;SDS011;27037;52.010;4.446;2023-07-24T10:05:45;7.45;;;4.25;;
41293;SDS011;27037;52.010;4.446;2023-07-24T10:08:12;12.10;;;3.95;;
41293;SDS011;27037;52.010;4.446;2023-07-24T10:10:41;10.63;;;5.22;;
41293;SDS011;27037;52.010;4.446;2023-07-24T10:13:07;10.98;;;4.50;;
41293;SDS011;27037;52.010;4.446;2023-07-24T10:15:35;9.48;;;4.60;;
41293;SDS011;27037;52.010;4.446;2023-07-24T10:18:05;9.43;;;4.25;;
41293;SDS011;27037;52.010;4.446;2023-07-24T10:20:33;9.00;;;4.18;;
41293;SDS011;27037;52.010;4.446;2023-07-24T10:23:00;10.25;;;4.55;;
41293;SDS011;27037;52.010;4.446;2023-07-24T10:25:33;7.43;;;3.83;;
41293;SDS011;27037;52.010;4.446;2023-07-24T10:28:04;7.65;;;4.28;;
41293;SDS011;27037;52.010;4.446;2023-07-24T10:30:36;8.25;;;3.78;;
41293;SDS011;27037;52.010;4.446;2023-07-24T10:33:12;6.57;;;3.70;;
41293;SDS011;27037;52.010;4.446;2023-07-24T10:35:44;8.18;;;4.15;;
41293;SDS011;27037;52.010;4.446;2023-07-24T10:38:12;8.65;;;4.28;;
41293;SDS011;27037;52.010;4.446;2023-07-24T10:40:44;9.07;;;4.28;;
41293;SDS011;27037;52.010;4.446;2023-07-24T10:43:12;7.15;;;4.70;;
41293;SDS011;27037;52.010;4.446;2023-07-24T10:48:12;7.55;;;3.80;;
41293;SDS011;27037;52.010;4.446;2023-07-24T10:50:39;8.35;;;4.45;;
41293;SDS011;27037;52.010;4.446;2023-07-24T10:53:05;8.50;;;4.20;;
41293;SDS011;27037;52.010;4.446;2023-07-24T10:55:31;6.50;;;4.13;;
41293;SDS011;27037;52.010;4.446;2023-07-24T10:57:57;9.73;;;4.20;;
41293;SDS011;27037;52.010;4.446;2023-07-24T11:00:23;9.35;;;3.95;;
41293;SDS011;27037;52.010;4.446;2023-07-24T11:02:48;7.25;;;3.58;;
41293;SDS011;27037;52.010;4.446;2023-07-24T11:05:17;8.32;;;4.00;;
41293;SDS011;27037;52.010;4.446;2023-07-24T11:07:44;8.50;;;3.97;;
41293;SDS011;27037;52.010;4.446;2023-07-24T11:10:16;6.82;;;4.25;;
41293;SDS011;27037;52.010;4.446;2023-07-24T11:12:47;8.18;;;4.57;;
41293;SDS011;27037;52.010;4.446;2023-07-24T11:15:13;9.73;;;4.63;;
41293;SDS011;27037;52.010;4.446;2023-07-24T11:17:40;8.65;;;4.53;;
41293;SDS011;27037;52.010;4.446;2023-07-24T11:22:40;8.57;;;4.10;;
41293;SDS011;27037;52.010;4.446;2023-07-24T11:25:08;6.97;;;4.05;;
41293;SDS011;27037;52.010;4.446;2023-07-24T11:27:41;8.00;;;3.63;;
41293;SDS011;27037;52.010;4.446;2023-07-24T11:30:12;6.00;;;3.20;;
41293;SDS011;27037;52.010;4.446;2023-07-24T11:32:41;6.47;;;2.97;;
41293;SDS011;27037;52.010;4.446;2023-07-24T11:35:08;4.53;;;2.65;;
41293;SDS011;27037;52.010;4.446;2023-07-24T11:37:34;5.28;;;2.90;;
41293;SDS011;27037;52.010;4.446;2023-07-24T11:40:01;3.92;;;2.75;;
41293;SDS011;27037;52.010;4.446;2023-07-24T11:42:40;4.10;;;2.65;;
41293;SDS011;27037;52.010;4.446;2023-07-24T11:45:07;4.05;;;2.60;;
41293;SDS011;27037;52.010;4.446;2023-07-24T11:47:45;6.40;;;2.58;;
41293;SDS011;27037;52.010;4.446;2023-07-24T11:50:12;5.07;;;2.55;;
41293;SDS011;27037;52.010;4.446;2023-07-24T11:52:39;3.60;;;2.25;;
41293;SDS011;27037;52.010;4.446;2023-07-24T11:55:16;3.25;;;2.60;;
41293;SDS011;27037;52.010;4.446;2023-07-24T11:57:43;3.45;;;2.25;;
41293;SDS011;27037;52.010;4.446;2023-07-24T12:00:26;4.45;;;2.20;;
41293;SDS011;27037;52.010;4.446;2023-07-24T12:02:58;6.57;;;2.80;;
41293;SDS011;27037;52.010;4.446;2023-07-24T12:05:25;3.65;;;2.33;;
41293;SDS011;27037;52.010;4.446;2023-07-24T12:07:53;5.40;;;2.50;;
41293;SDS011;27037;52.010;4.446;2023-07-24T12:10:26;4.43;;;2.28;;
41293;SDS011;27037;52.010;4.446;2023-07-24T12:12:53;3.33;;;2.38;;
41293;SDS011;27037;52.010;4.446;2023-07-24T12:15:20;4.15;;;2.35;;
41293;SDS011;27037;52.010;4.446;2023-07-24T12:17:45;4.55;;;2.53;;
41293;SDS011;27037;52.010;4.446;2023-07-24T12:20:11;2.67;;;2.40;;
41293;SDS011;27037;52.010;4.446;2023-07-24T12:22:38;3.20;;;2.40;;
41293;SDS011;27037;52.010;4.446;2023-07-24T12:25:04;3.20;;;2.10;;
41293;SDS011;27037;52.010;4.446;2023-07-24T12:27:31;3.38;;;2.08;;
41293;SDS011;27037;52.010;4.446;2023-07-24T12:29:56;4.95;;;2.13;;
41293;SDS011;27037;52.010;4.446;2023-07-24T12:32:23;5.70;;;2.35;;
41293;SDS011;27037;52.010;4.446;2023-07-24T12:34:49;113.38;;;17.17;;
41293;SDS011;27037;52.010;4.446;2023-07-24T12:37:16;4.70;;;2.17;;
41293;SDS011;27037;52.010;4.446;2023-07-24T12:39:43;2.67;;;2.03;;
41293;SDS011;27037;52.010;4.446;2023-07-24T12:42:12;3.30;;;1.75;;
41293;SDS011;27037;52.010;4.446;2023-07-24T12:44:38;6.65;;;2.22;;
41293;SDS011;27037;52.010;4.446;2023-07-24T12:47:04;4.43;;;1.73;;
41293;SDS011;27037;52.010;4.446;2023-07-24T12:49:30;3.88;;;2.15;;
41293;SDS011;27037;52.010;4.446;2023-07-24T12:51:56;7.15;;;2.00;;
41293;SDS011;27037;52.010;4.446;2023-07-24T12:54:22;5.28;;;2.08;;
41293;SDS011;27037;52.010;4.446;2023-07-24T12:56:48;5.97;;;2.13;;
41293;SDS011;27037;52.010;4.446;2023-07-24T12:59:14;6.65;;;2.17;;
41293;SDS011;27037;52.010;4.446;2023-07-24T13:01:40;5.80;;;1.95;;
41293;SDS011;27037;52.010;4.446;2023-07-24T13:04:07;5.88;;;2.20;;
41293;SDS011;27037;52.010;4.446;2023-07-24T13:06:33;6.85;;;2.15;;
41293;SDS011;27037;52.010;4.446;2023-07-24T13:08:58;7.70;;;2.45;;
41293;SDS011;27037;52.010;4.446;2023-07-24T13:11:24;6.13;;;2.40;;
41293;SDS011;27037;52.010;4.446;2023-07-24T13:13:50;8.18;;;2.40;;
41293;SDS011;27037;52.010;4.446;2023-07-24T13:16:16;8.07;;;2.30;;
41293;SDS011;27037;52.010;4.446;2023-07-24T13:18:42;10.15;;;2.10;;
41293;SDS011;27037;52.010;4.446;2023-07-24T13:21:07;8.38;;;2.28;;
41293;SDS011;27037;52.010;4.446;2023-07-24T13:23:33;8.48;;;2.10;;
41293;SDS011;27037;52.010;4.446;2023-07-24T13:25:59;5.55;;;1.85;;
41293;SDS011;27037;52.010;4.446;2023-07-24T13:28:25;8.85;;;1.95;;
41293;SDS011;27037;52.010;4.446;2023-07-24T13:30:50;10.23;;;2.10;;
41293;SDS011;27037;52.010;4.446;2023-07-24T13:33:16;6.55;;;1.70;;
41293;SDS011;27037;52.010;4.446;2023-07-24T13:35:42;6.13;;;1.85;;
41293;SDS011;27037;52.010;4.446;2023-07-24T13:38:07;6.75;;;2.30;;
41293;SDS011;27037;52.010;4.446;2023-07-24T13:40:36;7.53;;;1.80;;
41293;SDS011;27037;52.010;4.446;2023-07-24T13:43:02;6.03;;;2.05;;
41293;SDS011;27037;52.010;4.446;2023-07-24T13:45:28;5.70;;;1.63;;
41293;SDS011;27037;52.010;4.446;2023-07-24T13:47:54;5.82;;;1.50;;
41293;SDS011;27037;52.010;4.446;2023-07-24T13:50:21;10.50;;;1.90;;
41293;SDS011;27037;52.010;4.446;2023-07-24T13:52:47;9.93;;;2.15;;
41293;SDS011;27037;52.010;4.446;2023-07-24T13:55:12;7.93;;;2.08;;
41293;SDS011;27037;52.010;4.446;2023-07-24T13:57:39;9.00;;;2.08;;
41293;SDS011;27037;52.010;4.446;2023-07-24T14:00:05;8.23;;;1.98;;
41293;SDS011;27037;52.010;4.446;2023-07-24T14:02:31;11.40;;;1.80;;
41293;SDS011;27037;52.010;4.446;2023-07-24T14:04:56;11.95;;;2.00;;
41293;SDS011;27037;52.010;4.446;2023-07-24T14:07:22;11.73;;;2.30;;
41293;SDS011;27037;52.010;4.446;2023-07-24T14:09:48;11.55;;;2.10;;
41293;SDS011;27037;52.010;4.446;2023-07-24T14:12:13;8.70;;;1.80;;
41293;SDS011;27037;52.010;4.446;2023-07-24T14:14:39;8.73;;;2.03;;
41293;SDS011;27037;52.010;4.446;2023-07-24T14:17:04;10.38;;;2.00;;
41293;SDS011;27037;52.010;4.446;2023-07-24T14:19:30;7.57;;;1.88;;
41293;SDS011;27037;52.010;4.446;2023-07-24T14:21:56;7.65;;;1.60;;
41293;SDS011;27037;52.010;4.446;2023-07-24T14:24:21;9.95;;;1.73;;
41293;SDS011;27037;52.010;4.446;2023-07-24T14:26:47;7.15;;;1.50;;
41293;SDS011;27037;52.010;4.446;2023-07-24T14:29:13;6.82;;;1.70;;
41293;SDS011;27037;52.010;4.446;2023-07-24T14:31:42;8.07;;;1.65;;
41293;SDS011;27037;52.010;4.446;2023-07-24T14:34:08;8.70;;;1.55;;
41293;SDS011;27037;52.010;4.446;2023-07-24T14:36:36;8.13;;;1.60;;
41293;SDS011;27037;52.010;4.446;2023-07-24T14:39:04;6.95;;;1.40;;
41293;SDS011;27037;52.010;4.446;2023-07-24T14:41:30;7.03;;;1.20;;
41293;SDS011;27037;52.010;4.446;2023-07-24T14:43:56;5.93;;;1.20;;
41293;SDS011;27037;52.010;4.446;2023-07-24T14:46:22;5.03;;;1.33;;
41293;SDS011;27037;52.010;4.446;2023-07-24T14:48:47;5.18;;;0.95;;
41293;SDS011;27037;52.010;4.446;2023-07-24T14:51:14;5.85;;;0.70;;
41293;SDS011;27037;52.010;4.446;2023-07-24T14:53:39;3.58;;;0.80;;
41293;SDS011;27037;52.010;4.446;2023-07-24T14:56:05;3.00;;;0.90;;
41293;SDS011;27037;52.010;4.446;2023-07-24T14:58:30;5.18;;;0.73;;